createdAt,value
2018-07-14T00:00:43.502Z,1013.69
2018-07-14T00:01:43.457Z,1013.72
2018-07-14T00:02:43.412Z,1013.77
2018-07-14T00:03:43.370Z,1013.74
2018-07-14T00:04:43.325Z,1013.78
2018-07-14T00:05:43.281Z,1013.74
2018-07-14T00:06:43.239Z,1013.78
2018-07-14T00:07:43.193Z,1013.78
2018-07-14T00:08:43.149Z,1013.76
2018-07-14T00:09:43.106Z,1013.76
2018-07-14T00:10:43.061Z,1013.79
2018-07-14T00:11:43.017Z,1013.78
2018-07-14T00:12:42.973Z,1013.78
2018-07-14T00:13:42.929Z,1013.81
2018-07-14T00:14:42.884Z,1013.81
2018-07-14T00:15:42.841Z,1013.83
2018-07-14T00:16:42.797Z,1013.82
2018-07-14T00:17:42.754Z,1013.81
2018-07-14T00:18:42.709Z,1013.83
2018-07-14T00:19:42.665Z,1013.82
2018-07-14T00:20:42.621Z,1013.86
2018-07-14T00:21:42.577Z,1013.83
2018-07-14T00:22:42.533Z,1013.81
2018-07-14T00:23:42.492Z,1013.83
2018-07-14T00:24:42.448Z,1013.79
2018-07-14T00:25:42.402Z,1013.80
2018-07-14T00:26:42.357Z,1013.82
2018-07-14T00:27:42.314Z,1013.81
2018-07-14T00:28:42.270Z,1013.79
2018-07-14T00:29:42.226Z,1013.80
2018-07-14T00:30:42.181Z,1013.79
2018-07-14T00:31:42.140Z,1013.77
2018-07-14T00:32:42.094Z,1013.80
2018-07-14T00:33:42.050Z,1013.81
2018-07-14T00:34:42.005Z,1013.84
2018-07-14T00:35:41.963Z,1013.83
2018-07-14T00:36:41.917Z,1013.81
2018-07-14T00:37:41.874Z,1013.83
2018-07-14T00:38:41.831Z,1013.81
2018-07-14T00:39:41.794Z,1013.83
2018-07-14T00:40:41.742Z,1013.83
2018-07-14T00:41:41.698Z,1013.86
2018-07-14T00:42:41.654Z,1013.83
2018-07-14T00:43:41.609Z,1013.87
2018-07-14T00:44:41.566Z,1013.89
2018-07-14T00:45:41.522Z,1013.88
2018-07-14T00:46:41.477Z,1013.91
2018-07-14T00:47:41.439Z,1013.92
2018-07-14T00:48:41.391Z,1013.87
2018-07-14T00:49:41.346Z,1013.89
2018-07-14T00:50:41.304Z,1013.86
2018-07-14T00:51:41.257Z,1013.84
2018-07-14T00:52:41.225Z,1013.83
2018-07-14T00:53:41.171Z,1013.83
2018-07-14T00:54:41.126Z,1013.80
2018-07-14T00:55:41.082Z,1013.85
2018-07-14T00:56:41.038Z,1013.83
2018-07-14T00:57:40.996Z,1013.86
2018-07-14T00:58:40.949Z,1013.87
2018-07-14T00:59:40.906Z,1013.87
2018-07-14T01:00:40.862Z,1013.92
2018-07-14T01:01:40.819Z,1013.90
2018-07-14T01:02:40.774Z,1013.93
2018-07-14T01:03:40.729Z,1013.92
2018-07-14T01:04:40.689Z,1013.95
2018-07-14T01:05:40.642Z,1013.95
2018-07-14T01:06:40.597Z,1013.97
2018-07-14T01:07:40.606Z,1013.95
2018-07-14T01:08:40.510Z,1013.98
2018-07-14T01:09:40.466Z,1013.99
2018-07-14T01:10:40.421Z,1013.97
2018-07-14T01:11:40.380Z,1013.92
2018-07-14T01:12:40.336Z,1013.98
2018-07-14T01:13:40.290Z,1013.97
2018-07-14T01:14:40.246Z,1013.91
2018-07-14T01:15:40.202Z,1013.94
2018-07-14T01:16:40.159Z,1013.95
2018-07-14T01:17:40.139Z,1013.97
2018-07-14T01:18:40.069Z,1013.97
2018-07-14T01:19:40.026Z,1013.98
2018-07-14T01:20:39.984Z,1013.98
2018-07-14T01:21:39.940Z,1014.00
2018-07-14T01:22:39.893Z,1014.02
2018-07-14T01:23:39.849Z,1014.01
2018-07-14T01:25:39.761Z,1014.04
2018-07-14T01:26:39.716Z,1014.03
2018-07-14T01:27:39.673Z,1014.05
2018-07-14T01:28:39.629Z,1014.04
2018-07-14T01:29:39.635Z,1014.07
2018-07-14T01:30:39.540Z,1014.06
2018-07-14T01:31:39.497Z,1014.06
2018-07-14T01:32:39.452Z,1014.08
2018-07-14T01:33:39.408Z,1014.08
2018-07-14T01:34:39.364Z,1014.04
2018-07-14T01:35:39.320Z,1014.09
2018-07-14T01:36:39.276Z,1014.09
2018-07-14T01:37:39.232Z,1014.09
2018-07-14T01:38:39.188Z,1014.08
2018-07-14T01:39:39.143Z,1014.08
2018-07-14T01:40:39.192Z,1014.11
2018-07-14T01:41:39.056Z,1014.09
2018-07-14T01:42:39.012Z,1014.10
2018-07-14T01:43:38.967Z,1014.09
2018-07-14T01:44:38.924Z,1014.08
2018-07-14T01:45:38.879Z,1014.09
2018-07-14T01:46:38.835Z,1014.08
2018-07-14T01:47:38.791Z,1014.09
2018-07-14T01:48:38.747Z,1014.10
2018-07-14T01:49:38.703Z,1014.07
2018-07-14T01:50:38.658Z,1014.05
2018-07-14T01:51:38.614Z,1014.10
2018-07-14T01:52:38.621Z,1014.08
2018-07-14T01:53:38.577Z,1014.03
2018-07-14T01:54:38.482Z,1014.03
2018-07-14T01:55:38.441Z,1014.00
2018-07-14T01:56:38.394Z,1014.03
2018-07-14T01:57:38.354Z,1014.01
2018-07-14T01:58:38.306Z,1014.02
2018-07-14T01:59:38.262Z,1014.04
2018-07-14T02:00:38.218Z,1014.04
2018-07-14T02:01:38.174Z,1014.00
2018-07-14T02:02:38.129Z,1013.99
2018-07-14T02:03:38.085Z,1013.99
2018-07-14T02:04:38.042Z,1013.97
2018-07-14T02:05:37.998Z,1013.96
2018-07-14T02:06:37.953Z,1013.99
2018-07-14T02:07:37.909Z,1013.96
2018-07-14T02:08:37.865Z,1013.95
2018-07-14T02:09:37.824Z,1013.95
2018-07-14T02:10:37.776Z,1013.99
2018-07-14T02:11:37.733Z,1013.96
2018-07-14T02:12:37.689Z,1013.93
2018-07-14T02:13:37.645Z,1013.94
2018-07-14T02:14:37.600Z,1013.94
2018-07-14T02:15:37.556Z,1013.98
2018-07-14T02:16:37.512Z,1013.98
2018-07-14T02:17:37.468Z,1013.95
2018-07-14T02:18:37.423Z,1013.98
2018-07-14T02:19:37.379Z,1014.00
2018-07-14T02:20:37.336Z,1013.98
2018-07-14T02:21:37.292Z,1014.02
2018-07-14T02:22:37.247Z,1014.00
2018-07-14T02:23:37.203Z,1014.01
2018-07-14T02:24:37.159Z,1014.04
2018-07-14T02:25:37.115Z,1014.06
2018-07-14T02:26:37.070Z,1014.05
2018-07-14T02:27:37.026Z,1014.01
2018-07-14T02:28:36.982Z,1014.02
2018-07-14T02:29:36.938Z,1014.00
2018-07-14T02:30:36.894Z,1013.98
2018-07-14T02:31:36.850Z,1013.97
2018-07-14T02:32:36.806Z,1014.02
2018-07-14T02:33:36.764Z,1014.01
2018-07-14T02:34:36.719Z,1014.02
2018-07-14T02:36:36.635Z,1014.00
2018-07-14T02:38:36.541Z,1014.04
2018-07-14T02:40:36.453Z,1014.06
2018-07-14T02:41:36.411Z,1014.03
2018-07-14T02:42:36.363Z,1014.05
2018-07-14T02:43:36.319Z,1014.06
2018-07-14T02:44:36.276Z,1014.05
2018-07-14T02:45:36.232Z,1014.07
2018-07-14T02:46:36.187Z,1014.08
2018-07-14T02:47:36.143Z,1014.10
2018-07-14T02:48:36.099Z,1014.10
2018-07-14T02:49:36.057Z,1014.09
2018-07-14T02:50:36.012Z,1014.11
2018-07-14T02:51:35.966Z,1014.11
2018-07-14T02:52:35.921Z,1014.11
2018-07-14T02:53:35.878Z,1014.09
2018-07-14T02:54:35.833Z,1014.11
2018-07-14T02:55:35.789Z,1014.12
2018-07-14T02:56:35.745Z,1014.11
2018-07-14T02:57:35.701Z,1014.10
2018-07-14T02:58:35.656Z,1014.14
2018-07-14T02:59:35.618Z,1014.18
2018-07-14T03:00:35.569Z,1014.16
2018-07-14T03:01:35.524Z,1014.18
2018-07-14T03:02:35.481Z,1014.16
2018-07-14T03:03:35.449Z,1014.18
2018-07-14T03:04:35.391Z,1014.16
2018-07-14T03:05:35.348Z,1014.17
2018-07-14T03:06:35.302Z,1014.15
2018-07-14T03:07:35.261Z,1014.17
2018-07-14T03:08:35.214Z,1014.17
2018-07-14T03:09:35.173Z,1014.18
2018-07-14T03:10:35.125Z,1014.19
2018-07-14T03:11:35.081Z,1014.20
2018-07-14T03:12:35.037Z,1014.19
2018-07-14T03:13:34.993Z,1014.20
2018-07-14T03:14:34.948Z,1014.18
2018-07-14T03:15:34.904Z,1014.18
2018-07-14T03:16:34.862Z,1014.21
2018-07-14T03:17:34.819Z,1014.20
2018-07-14T03:18:34.771Z,1014.22
2018-07-14T03:19:34.863Z,1014.23
2018-07-14T03:20:34.683Z,1014.26
2018-07-14T03:21:34.639Z,1014.24
2018-07-14T03:22:34.593Z,1014.24
2018-07-14T03:23:34.550Z,1014.28
2018-07-14T03:24:34.506Z,1014.26
2018-07-14T03:25:34.461Z,1014.29
2018-07-14T03:26:34.416Z,1014.28
2018-07-14T03:27:34.372Z,1014.24
2018-07-14T03:28:34.327Z,1014.27
2018-07-14T03:29:34.286Z,1014.20
2018-07-14T03:30:34.239Z,1014.23
2018-07-14T03:31:34.196Z,1014.24
2018-07-14T03:32:34.151Z,1014.24
2018-07-14T03:33:34.114Z,1014.25
2018-07-14T03:34:34.062Z,1014.27
2018-07-14T03:35:34.018Z,1014.25
2018-07-14T03:36:33.982Z,1014.29
2018-07-14T03:37:33.930Z,1014.24
2018-07-14T03:38:33.884Z,1014.23
2018-07-14T03:39:33.842Z,1014.19
2018-07-14T03:40:33.796Z,1014.23
2018-07-14T03:41:33.752Z,1014.22
2018-07-14T03:42:33.707Z,1014.23
2018-07-14T03:43:33.663Z,1014.20
2018-07-14T03:44:33.620Z,1014.22
2018-07-14T03:45:33.575Z,1014.20
2018-07-14T03:46:33.531Z,1014.25
2018-07-14T03:47:33.536Z,1014.21
2018-07-14T03:48:33.441Z,1014.17
2018-07-14T03:49:33.397Z,1014.19
2018-07-14T03:50:33.352Z,1014.19
2018-07-14T03:51:33.308Z,1014.14
2018-07-14T03:52:33.264Z,1014.17
2018-07-14T03:53:33.220Z,1014.18
2018-07-14T03:54:33.175Z,1014.22
2018-07-14T03:55:33.131Z,1014.23
2018-07-14T03:56:33.087Z,1014.24
2018-07-14T03:57:33.043Z,1014.24
2018-07-14T03:58:32.997Z,1014.26
2018-07-14T03:59:32.954Z,1014.29
2018-07-14T04:00:32.909Z,1014.27
2018-07-14T04:01:32.865Z,1014.28
2018-07-14T04:02:32.819Z,1014.32
2018-07-14T04:03:32.776Z,1014.32
2018-07-14T04:05:32.688Z,1014.35
2018-07-14T04:07:32.598Z,1014.37
2018-07-14T04:08:32.555Z,1014.34
2018-07-14T04:09:32.510Z,1014.34
2018-07-14T04:10:32.468Z,1014.34
2018-07-14T04:11:32.421Z,1014.33
2018-07-14T04:12:32.377Z,1014.31
2018-07-14T04:13:32.333Z,1014.31
2018-07-14T04:14:32.292Z,1014.34
2018-07-14T04:15:32.243Z,1014.36
2018-07-14T04:16:32.200Z,1014.35
2018-07-14T04:17:32.156Z,1014.38
2018-07-14T04:18:32.110Z,1014.36
2018-07-14T04:19:32.066Z,1014.35
2018-07-14T04:20:32.028Z,1014.36
2018-07-14T04:21:31.977Z,1014.36
2018-07-14T04:22:31.935Z,1014.38
2018-07-14T04:23:31.888Z,1014.35
2018-07-14T04:24:31.844Z,1014.34
2018-07-14T04:25:31.800Z,1014.34
2018-07-14T04:26:31.755Z,1014.36
2018-07-14T04:27:31.711Z,1014.30
2018-07-14T04:28:31.667Z,1014.29
2018-07-14T04:29:31.622Z,1014.35
2018-07-14T04:30:31.577Z,1014.31
2018-07-14T04:31:31.533Z,1014.39
2018-07-14T04:32:31.489Z,1014.36
2018-07-14T04:33:31.445Z,1014.35
2018-07-14T04:34:31.401Z,1014.40
2018-07-14T04:35:31.356Z,1014.38
2018-07-14T04:36:31.319Z,1014.39
2018-07-14T04:37:31.267Z,1014.42
2018-07-14T04:38:31.222Z,1014.42
2018-07-14T04:39:31.178Z,1014.43
2018-07-14T04:40:31.134Z,1014.42
2018-07-14T04:41:31.090Z,1014.42
2018-07-14T04:42:31.053Z,1014.42
2018-07-14T04:43:31.004Z,1014.40
2018-07-14T04:44:30.957Z,1014.41
2018-07-14T04:45:30.912Z,1014.38
2018-07-14T04:46:30.963Z,1014.39
2018-07-14T04:47:30.827Z,1014.34
2018-07-14T04:48:30.779Z,1014.37
2018-07-14T04:49:30.734Z,1014.35
2018-07-14T04:50:30.689Z,1014.35
2018-07-14T04:51:30.645Z,1014.34
2018-07-14T04:52:30.601Z,1014.39
2018-07-14T04:55:30.467Z,1014.41
2018-07-14T04:56:30.423Z,1014.40
2018-07-14T04:57:30.380Z,1014.42
2018-07-14T04:58:30.334Z,1014.41
2018-07-14T04:59:30.299Z,1014.41
2018-07-14T05:00:30.247Z,1014.42
2018-07-14T05:01:30.202Z,1014.40
2018-07-14T05:02:30.160Z,1014.42
2018-07-14T05:03:30.112Z,1014.43
2018-07-14T05:04:30.068Z,1014.40
2018-07-14T05:05:30.024Z,1014.40
2018-07-14T05:06:30.036Z,1014.40
2018-07-14T05:07:29.935Z,1014.42
2018-07-14T05:08:29.890Z,1014.39
2018-07-14T05:09:29.847Z,1014.45
2018-07-14T05:10:29.801Z,1014.40
2018-07-14T05:11:29.757Z,1014.41
2018-07-14T05:12:29.713Z,1014.46
2018-07-14T05:13:29.669Z,1014.47
2018-07-14T05:14:29.626Z,1014.47
2018-07-14T05:15:29.580Z,1014.49
2018-07-14T05:16:29.537Z,1014.50
2018-07-14T05:17:29.492Z,1014.50
2018-07-14T05:18:29.449Z,1014.50
2018-07-14T05:19:29.402Z,1014.53
2018-07-14T05:20:29.359Z,1014.53
2018-07-14T05:21:29.417Z,1014.54
2018-07-14T05:22:29.269Z,1014.53
2018-07-14T05:23:29.226Z,1014.58
2018-07-14T05:24:29.181Z,1014.56
2018-07-14T05:25:29.138Z,1014.55
2018-07-14T05:26:29.093Z,1014.57
2018-07-14T05:27:29.048Z,1014.54
2018-07-14T05:28:29.072Z,1014.54
2018-07-14T05:29:28.968Z,1014.56
2018-07-14T05:30:28.915Z,1014.55
2018-07-14T05:31:28.871Z,1014.58
2018-07-14T05:32:28.829Z,1014.60
2018-07-14T05:33:28.783Z,1014.60
2018-07-14T05:34:28.738Z,1014.57
2018-07-14T05:35:28.694Z,1014.53
2018-07-14T05:36:28.649Z,1014.54
2018-07-14T05:37:28.606Z,1014.52
2018-07-14T05:38:28.561Z,1014.54
2018-07-14T05:39:28.523Z,1014.53
2018-07-14T05:40:28.475Z,1014.57
2018-07-14T05:41:28.428Z,1014.55
2018-07-14T05:42:28.383Z,1014.60
2018-07-14T05:43:28.340Z,1014.54
2018-07-14T05:44:28.295Z,1014.57
2018-07-14T05:45:28.251Z,1014.59
2018-07-14T05:46:28.206Z,1014.60
2018-07-14T05:47:28.163Z,1014.60
2018-07-14T05:48:28.119Z,1014.58
2018-07-14T05:49:28.075Z,1014.62
2018-07-14T05:51:27.986Z,1014.65
2018-07-14T05:52:27.943Z,1014.66
2018-07-14T05:53:27.897Z,1014.66
2018-07-14T05:54:27.852Z,1014.68
2018-07-14T05:55:27.809Z,1014.67
2018-07-14T05:56:27.764Z,1014.71
2018-07-14T05:57:27.721Z,1014.70
2018-07-14T05:58:27.676Z,1014.71
2018-07-14T05:59:27.631Z,1014.71
2018-07-14T06:00:27.588Z,1014.75
2018-07-14T06:01:27.544Z,1014.77
2018-07-14T06:02:27.499Z,1014.76
2018-07-14T06:03:27.454Z,1014.73
2018-07-14T06:04:27.412Z,1014.78
2018-07-14T06:05:27.367Z,1014.77
2018-07-14T06:06:27.322Z,1014.79
2018-07-14T06:07:27.278Z,1014.83
2018-07-14T06:08:27.234Z,1014.79
2018-07-14T06:09:27.190Z,1014.81
2018-07-14T06:10:27.145Z,1014.82
2018-07-14T06:11:27.101Z,1014.86
2018-07-14T06:12:27.057Z,1014.89
2018-07-14T06:13:27.014Z,1014.89
2018-07-14T06:14:26.974Z,1014.93
2018-07-14T06:15:26.925Z,1014.93
2018-07-14T06:16:26.881Z,1014.93
2018-07-14T06:17:26.837Z,1014.94
2018-07-14T06:18:26.792Z,1014.95
2018-07-14T06:19:26.796Z,1014.97
2018-07-14T06:20:26.704Z,1014.96
2018-07-14T06:21:26.660Z,1014.98
2018-07-14T06:22:26.616Z,1014.96
2018-07-14T06:23:26.572Z,1014.97
2018-07-14T06:24:26.528Z,1014.96
2018-07-14T06:25:26.484Z,1014.98
2018-07-14T06:26:26.439Z,1014.95
2018-07-14T06:27:26.397Z,1015.01
2018-07-14T06:28:26.352Z,1014.99
2018-07-14T06:29:26.308Z,1014.99
2018-07-14T06:30:26.263Z,1014.98
2018-07-14T06:31:26.219Z,1015.00
2018-07-14T06:32:26.176Z,1015.02
2018-07-14T06:33:26.132Z,1015.02
2018-07-14T06:34:26.088Z,1015.04
2018-07-14T06:35:26.044Z,1015.07
2018-07-14T06:36:26.000Z,1015.07
2018-07-14T06:37:25.958Z,1015.04
2018-07-14T06:38:26.070Z,1015.07
2018-07-14T06:39:25.867Z,1015.06
2018-07-14T06:40:25.824Z,1015.03
2018-07-14T06:41:25.782Z,1015.03
2018-07-14T06:42:25.736Z,1015.07
2018-07-14T06:43:25.692Z,1015.09
2018-07-14T06:44:25.648Z,1015.11
2018-07-14T06:45:25.604Z,1015.10
2018-07-14T06:46:25.560Z,1015.14
2018-07-14T06:47:25.517Z,1015.19
2018-07-14T06:48:25.472Z,1015.21
2018-07-14T06:49:25.431Z,1015.19
2018-07-14T06:50:25.384Z,1015.20
2018-07-14T06:51:25.340Z,1015.18
2018-07-14T06:52:25.299Z,1015.14
2018-07-14T06:53:25.254Z,1015.16
2018-07-14T06:54:25.211Z,1015.15
2018-07-14T06:55:25.166Z,1015.15
2018-07-14T06:56:25.123Z,1015.18
2018-07-14T06:57:25.079Z,1015.15
2018-07-14T06:59:24.992Z,1015.21
2018-07-14T07:00:24.949Z,1015.18
2018-07-14T07:01:24.905Z,1015.21
2018-07-14T07:02:24.864Z,1015.21
2018-07-14T07:03:24.827Z,1015.19
2018-07-14T07:04:24.779Z,1015.22
2018-07-14T07:05:24.734Z,1015.21
2018-07-14T07:06:24.687Z,1015.15
2018-07-14T07:07:24.643Z,1015.18
2018-07-14T07:08:24.601Z,1015.17
2018-07-14T07:09:24.558Z,1015.24
2018-07-14T07:10:24.514Z,1015.17
2018-07-14T07:11:24.470Z,1015.17
2018-07-14T07:12:24.427Z,1015.19
2018-07-14T07:13:24.385Z,1015.22
2018-07-14T07:14:24.342Z,1015.21
2018-07-14T07:15:24.299Z,1015.18
2018-07-14T07:16:24.255Z,1015.17
2018-07-14T07:17:24.212Z,1015.17
2018-07-14T07:18:24.168Z,1015.19
2018-07-14T07:19:24.125Z,1015.18
2018-07-14T07:20:24.082Z,1015.18
2018-07-14T07:21:24.053Z,1015.18
2018-07-14T07:22:23.995Z,1015.20
2018-07-14T07:23:23.953Z,1015.20
2018-07-14T07:24:23.912Z,1015.14
2018-07-14T07:25:23.868Z,1015.20
2018-07-14T07:26:23.824Z,1015.19
2018-07-14T07:27:23.781Z,1015.20
2018-07-14T07:28:23.738Z,1015.18
2018-07-14T07:29:23.697Z,1015.25
2018-07-14T07:30:23.658Z,1015.28
2018-07-14T07:31:23.609Z,1015.27
2018-07-14T07:32:23.566Z,1015.25
2018-07-14T07:33:23.523Z,1015.23
2018-07-14T07:34:23.490Z,1015.27
2018-07-14T07:35:23.438Z,1015.28
2018-07-14T07:36:23.395Z,1015.32
2018-07-14T07:37:23.352Z,1015.35
2018-07-14T07:38:23.309Z,1015.30
2018-07-14T07:39:23.267Z,1015.32
2018-07-14T07:40:23.224Z,1015.31
2018-07-14T07:41:23.181Z,1015.30
2018-07-14T07:43:23.180Z,1015.30
2018-07-14T07:44:23.054Z,1015.30
2018-07-14T07:45:23.011Z,1015.27
2018-07-14T07:46:22.968Z,1015.29
2018-07-14T07:47:22.926Z,1015.26
2018-07-14T07:48:22.898Z,1015.26
2018-07-14T07:49:22.840Z,1015.28
2018-07-14T07:50:22.798Z,1015.20
2018-07-14T07:51:22.758Z,1015.25
2018-07-14T07:52:22.713Z,1015.28
2018-07-14T07:53:22.671Z,1015.30
2018-07-14T07:54:22.632Z,1015.28
2018-07-14T07:55:22.585Z,1015.25
2018-07-14T07:56:22.543Z,1015.27
2018-07-14T07:57:22.502Z,1015.27
2018-07-14T07:58:22.458Z,1015.25
2018-07-14T07:59:22.416Z,1015.25
2018-07-14T08:00:22.374Z,1015.27
2018-07-14T08:01:22.333Z,1015.28
2018-07-14T08:02:22.289Z,1015.25
2018-07-14T08:03:22.250Z,1015.29
2018-07-14T08:04:22.205Z,1015.29
2018-07-14T08:05:22.165Z,1015.26
2018-07-14T08:06:22.121Z,1015.29
2018-07-14T08:07:22.079Z,1015.28
2018-07-14T08:08:22.037Z,1015.30
2018-07-14T08:09:22.004Z,1015.31
2018-07-14T08:10:21.952Z,1015.27
2018-07-14T08:11:21.911Z,1015.29
2018-07-14T08:12:21.869Z,1015.24
2018-07-14T08:13:21.827Z,1015.23
2018-07-14T08:14:21.785Z,1015.28
2018-07-14T08:15:21.745Z,1015.27
2018-07-14T08:16:21.702Z,1015.22
2018-07-14T08:17:21.664Z,1015.29
2018-07-14T08:18:21.618Z,1015.28
2018-07-14T08:19:21.577Z,1015.27
2018-07-14T08:20:21.535Z,1015.29
2018-07-14T08:21:21.494Z,1015.31
2018-07-14T08:22:21.452Z,1015.33
2018-07-14T08:23:21.420Z,1015.34
2018-07-14T08:24:21.372Z,1015.36
2018-07-14T08:25:21.332Z,1015.31
2018-07-14T08:26:21.286Z,1015.28
2018-07-14T08:27:21.245Z,1015.26
2018-07-14T08:28:21.207Z,1015.29
2018-07-14T08:29:21.163Z,1015.28
2018-07-14T08:30:21.121Z,1015.26
2018-07-14T08:31:21.080Z,1015.28
2018-07-14T08:32:21.046Z,1015.25
2018-07-14T08:33:20.998Z,1015.27
2018-07-14T08:34:20.957Z,1015.32
2018-07-14T08:35:20.916Z,1015.32
2018-07-14T08:36:20.875Z,1015.33
2018-07-14T08:37:20.835Z,1015.33
2018-07-14T08:38:20.793Z,1015.34
2018-07-14T08:39:20.752Z,1015.35
2018-07-14T08:40:20.711Z,1015.34
2018-07-14T08:41:20.672Z,1015.34
2018-07-14T08:42:20.629Z,1015.34
2018-07-14T08:44:20.549Z,1015.31
2018-07-14T08:45:20.512Z,1015.35
2018-07-14T08:46:20.469Z,1015.36
2018-07-14T08:47:20.427Z,1015.36
2018-07-14T08:48:20.387Z,1015.33
2018-07-14T08:49:20.349Z,1015.34
2018-07-14T08:50:20.311Z,1015.29
2018-07-14T08:51:20.290Z,1015.32
2018-07-14T08:52:20.225Z,1015.34
2018-07-14T08:53:20.184Z,1015.29
2018-07-14T08:54:20.144Z,1015.30
2018-07-14T08:55:20.103Z,1015.29
2018-07-14T08:56:20.064Z,1015.31
2018-07-14T08:57:20.024Z,1015.28
2018-07-14T08:58:20.029Z,1015.31
2018-07-14T08:59:19.944Z,1015.38
2018-07-14T09:00:19.904Z,1015.34
2018-07-14T09:01:19.864Z,1015.39
2018-07-14T09:02:19.823Z,1015.34
2018-07-14T09:03:19.784Z,1015.37
2018-07-14T09:04:19.744Z,1015.31
2018-07-14T09:05:19.704Z,1015.30
2018-07-14T09:07:19.628Z,1015.38
2018-07-14T09:08:19.584Z,1015.34
2018-07-14T09:09:19.545Z,1015.39
2018-07-14T09:10:19.504Z,1015.41
2018-07-14T09:11:19.465Z,1015.42
2018-07-14T09:12:19.425Z,1015.39
2018-07-14T09:13:19.386Z,1015.39
2018-07-14T09:14:19.346Z,1015.44
2018-07-14T09:15:19.306Z,1015.40
2018-07-14T09:16:19.272Z,1015.42
2018-07-14T09:17:19.228Z,1015.40
2018-07-14T09:18:19.188Z,1015.40
2018-07-14T09:19:19.148Z,1015.37
2018-07-14T09:20:19.109Z,1015.38
2018-07-14T09:21:19.074Z,1015.38
2018-07-14T09:22:19.029Z,1015.41
2018-07-14T09:23:18.991Z,1015.42
2018-07-14T09:24:18.954Z,1015.43
2018-07-14T09:25:18.962Z,1015.40
2018-07-14T09:26:18.873Z,1015.44
2018-07-14T09:27:18.834Z,1015.45
2018-07-14T09:28:18.798Z,1015.42
2018-07-14T09:29:18.754Z,1015.36
2018-07-14T09:30:18.724Z,1015.41
2018-07-14T09:31:18.675Z,1015.43
2018-07-14T09:32:18.638Z,1015.49
2018-07-14T09:33:18.598Z,1015.51
2018-07-14T09:34:18.557Z,1015.47
2018-07-14T09:35:18.518Z,1015.44
2018-07-14T09:36:18.508Z,1015.41
2018-07-14T09:37:18.439Z,1015.37
2018-07-14T09:38:18.399Z,1015.43
2018-07-14T09:39:18.360Z,1015.40
2018-07-14T09:40:18.321Z,1015.36
2018-07-14T09:41:18.282Z,1015.41
2018-07-14T09:42:18.241Z,1015.37
2018-07-14T09:43:18.202Z,1015.31
2018-07-14T09:44:18.165Z,1015.30
2018-07-14T09:45:18.124Z,1015.31
2018-07-14T09:46:18.084Z,1015.37
2018-07-14T09:47:18.044Z,1015.37
2018-07-14T09:48:18.011Z,1015.32
2018-07-14T09:49:17.971Z,1015.35
2018-07-14T09:50:17.924Z,1015.37
2018-07-14T09:51:17.893Z,1015.40
2018-07-14T09:52:17.845Z,1015.41
2018-07-14T09:53:17.806Z,1015.38
2018-07-14T09:54:17.765Z,1015.34
2018-07-14T09:55:17.744Z,1015.33
2018-07-14T09:56:17.686Z,1015.39
2018-07-14T09:57:17.647Z,1015.32
2018-07-14T09:58:17.608Z,1015.36
2018-07-14T09:59:17.565Z,1015.38
2018-07-14T10:00:17.524Z,1015.36
2018-07-14T10:01:17.485Z,1015.37
2018-07-14T10:02:17.443Z,1015.35
2018-07-14T10:03:17.443Z,1015.33
2018-07-14T10:04:17.362Z,1015.33
2018-07-14T10:05:17.322Z,1015.33
2018-07-14T10:06:17.433Z,1015.31
2018-07-14T10:07:17.245Z,1015.30
2018-07-14T10:08:17.198Z,1015.26
2018-07-14T10:09:17.158Z,1015.23
2018-07-14T10:10:17.116Z,1015.25
2018-07-14T10:11:17.076Z,1015.29
2018-07-14T10:12:17.034Z,1015.31
2018-07-14T10:13:17.137Z,1015.29
2018-07-14T10:14:16.951Z,1015.34
2018-07-14T10:15:16.911Z,1015.31
2018-07-14T10:16:16.870Z,1015.29
2018-07-14T10:17:16.907Z,1015.29
2018-07-14T10:18:16.786Z,1015.29
2018-07-14T10:19:16.746Z,1015.29
2018-07-14T10:20:16.705Z,1015.32
2018-07-14T10:21:16.667Z,1015.32
2018-07-14T10:22:16.696Z,1015.27
2018-07-14T10:23:16.580Z,1015.30
2018-07-14T10:24:16.539Z,1015.31
2018-07-14T10:25:16.704Z,1015.27
2018-07-14T10:26:16.456Z,1015.33
2018-07-14T10:27:16.414Z,1015.29
2018-07-14T10:28:16.374Z,1015.32
2018-07-14T10:29:16.332Z,1015.34
2018-07-14T10:30:16.289Z,1015.24
2018-07-14T10:31:16.248Z,1015.32
2018-07-14T10:32:16.207Z,1015.33
2018-07-14T10:33:16.166Z,1015.30
2018-07-14T10:34:16.125Z,1015.29
2018-07-14T10:35:16.082Z,1015.29
2018-07-14T10:36:16.042Z,1015.26
2018-07-14T10:37:15.999Z,1015.24
2018-07-14T10:38:15.957Z,1015.24
2018-07-14T10:39:15.916Z,1015.24
2018-07-14T10:41:15.832Z,1015.19
2018-07-14T10:42:15.892Z,1015.20
2018-07-14T10:43:15.749Z,1015.20
2018-07-14T10:44:15.708Z,1015.17
2018-07-14T10:45:15.666Z,1015.18
2018-07-14T10:46:15.624Z,1015.19
2018-07-14T10:47:15.582Z,1015.14
2018-07-14T10:48:15.541Z,1015.14
2018-07-14T10:49:15.499Z,1015.09
2018-07-14T10:50:15.457Z,1015.10
2018-07-14T10:51:15.415Z,1015.08
2018-07-14T10:52:15.374Z,1015.12
2018-07-14T10:53:15.332Z,1015.11
2018-07-14T10:54:15.289Z,1015.09
2018-07-14T10:55:15.264Z,1015.07
2018-07-14T10:56:15.210Z,1015.12
2018-07-14T10:57:15.165Z,1015.08
2018-07-14T10:58:15.170Z,1015.11
2018-07-14T10:59:15.131Z,1015.09
2018-07-14T11:00:15.042Z,1015.07
2018-07-14T11:01:15.001Z,1015.11
2018-07-14T11:02:14.956Z,1015.06
2018-07-14T11:03:14.914Z,1015.08
2018-07-14T11:04:14.872Z,1015.11
2018-07-14T11:06:14.788Z,1015.12
2018-07-14T11:07:14.747Z,1015.05
2018-07-14T11:08:14.705Z,1015.06
2018-07-14T11:09:14.668Z,1015.10
2018-07-14T11:10:14.621Z,1015.06
2018-07-14T11:11:14.579Z,1015.09
2018-07-14T11:12:14.619Z,1015.09
2018-07-14T11:13:14.496Z,1015.10
2018-07-14T11:14:14.454Z,1015.07
2018-07-14T11:15:14.412Z,1015.04
2018-07-14T11:16:14.371Z,1015.05
2018-07-14T11:17:14.330Z,1015.06
2018-07-14T11:18:14.286Z,1015.08
2018-07-14T11:19:14.244Z,1015.07
2018-07-14T11:20:14.203Z,1015.07
2018-07-14T11:21:14.161Z,1015.04
2018-07-14T11:22:14.119Z,1015.00
2018-07-14T11:23:14.077Z,1015.04
2018-07-14T11:24:14.039Z,1015.04
2018-07-14T11:25:13.993Z,1015.03
2018-07-14T11:26:13.951Z,1015.03
2018-07-14T11:27:13.910Z,1015.04
2018-07-14T11:28:13.867Z,1015.07
2018-07-14T11:29:13.825Z,1015.11
2018-07-14T11:30:13.810Z,1015.06
2018-07-14T11:31:13.741Z,1015.04
2018-07-14T11:32:13.700Z,1015.05
2018-07-14T11:33:13.658Z,1015.05
2018-07-14T11:34:13.615Z,1014.99
2018-07-14T11:35:13.578Z,1015.02
2018-07-14T11:36:13.532Z,1014.98
2018-07-14T11:37:13.490Z,1015.00
2018-07-14T11:38:13.547Z,1015.01
2018-07-14T11:39:13.405Z,1015.00
2018-07-14T11:40:13.366Z,1014.98
2018-07-14T11:41:13.322Z,1014.95
2018-07-14T11:42:13.350Z,1014.91
2018-07-14T11:43:13.238Z,1014.95
2018-07-14T11:44:13.196Z,1014.97
2018-07-14T11:45:13.154Z,1014.97
2018-07-14T11:46:13.161Z,1014.98
2018-07-14T11:47:13.070Z,1014.98
2018-07-14T11:48:13.091Z,1014.93
2018-07-14T11:49:12.986Z,1014.92
2018-07-14T11:50:12.944Z,1014.96
2018-07-14T11:51:12.901Z,1014.96
2018-07-14T11:52:12.860Z,1014.95
2018-07-14T11:53:12.819Z,1014.91
2018-07-14T11:54:12.817Z,1014.90
2018-07-14T11:55:12.733Z,1014.91
2018-07-14T11:56:12.692Z,1014.86
2018-07-14T11:57:12.650Z,1014.88
2018-07-14T11:58:12.609Z,1014.84
2018-07-14T11:59:12.565Z,1014.88
2018-07-14T12:00:12.523Z,1014.93
2018-07-14T12:01:12.497Z,1014.88
2018-07-14T12:02:12.439Z,1014.86
2018-07-14T12:03:12.397Z,1014.86
2018-07-14T12:04:12.355Z,1014.85
2018-07-14T12:05:12.313Z,1014.82
2018-07-14T12:06:12.271Z,1014.78
2018-07-14T12:07:12.254Z,1014.80
2018-07-14T12:08:12.187Z,1014.78
2018-07-14T12:09:12.145Z,1014.80
2018-07-14T12:10:12.105Z,1014.81
2018-07-14T12:11:12.062Z,1014.77
2018-07-14T12:12:12.019Z,1014.76
2018-07-14T12:13:11.977Z,1014.75
2018-07-14T12:14:11.936Z,1014.75
2018-07-14T12:15:11.893Z,1014.76
2018-07-14T12:16:11.851Z,1014.75
2018-07-14T12:17:11.809Z,1014.71
2018-07-14T12:18:11.767Z,1014.73
2018-07-14T12:19:11.724Z,1014.69
2018-07-14T12:20:11.683Z,1014.70